Time;durP1;ratioP1;P1;durP2;ratioP2;P2;SDS_P1;SDS_P2;PMS_P1;PMS_P2;Temp;Humidity;BMP_temperature;BMP_pressure;BME280_temperature;BME280_humidity;BME280_pressure;Samples;Min_cycle;Max_cycle;Signal;HPM_P1;HPM_P2
2022/05/27 00:01:18;;;;;;;6.03;1.90;;;17.40;93.30;;;17.53;100.00;101072.88;4991885;28;20046;-80
2022/05/27 00:03:46;;;;;;;4.15;2.28;;;17.40;93.30;;;17.42;100.00;101073.34;5007059;28;20069;-80
2022/05/27 00:06:13;;;;;;;2.15;1.63;;;17.30;93.60;;;17.39;100.00;101074.31;4991722;28;20045;-80
2022/05/27 00:08:40;;;;;;;3.00;1.60;;;17.30;93.60;;;17.34;100.00;101067.44;4991242;28;20058;-78
2022/05/27 00:11:08;;;;;;;4.35;2.10;;;17.30;93.70;;;17.34;100.00;101071.00;4993220;28;20669;-79
2022/05/27 00:13:35;;;;;;;2.75;1.80;;;17.30;93.80;;;17.37;100.00;101075.28;4995724;28;20053;-79
2022/05/27 00:16:02;;;;;;;6.50;2.47;;;17.20;93.90;;;17.33;100.00;101069.25;5027920;28;20054;-78
2022/05/27 00:18:30;;;;;;;4.07;1.90;;;17.20;94.10;;;17.23;100.00;101066.09;4996448;28;20092;-80
2022/05/27 00:20:58;;;;;;;2.75;1.90;;;17.20;94.20;;;17.27;100.00;101065.06;5027080;28;20084;-80
2022/05/27 00:23:26;;;;;;;4.93;1.80;;;17.20;94.30;;;17.20;100.00;101060.91;5010556;28;20065;-79
2022/05/27 00:25:53;;;;;;;3.15;1.60;;;17.20;94.30;;;17.11;100.00;101063.94;5027150;28;20044;-80
2022/05/27 00:28:20;;;;;;;2.13;1.73;;;17.20;94.60;;;17.07;100.00;101057.00;5027233;28;20052;-80
2022/05/27 00:30:48;;;;;;;5.57;1.70;;;17.60;94.80;;;17.03;100.00;101056.28;4993542;28;20414;-79
2022/05/27 00:33:15;;;;;;;4.03;1.90;;;17.60;95.00;;;17.05;100.00;101059.75;5026947;28;20676;-80
2022/05/27 00:35:42;;;;;;;2.25;1.60;;;17.00;95.00;;;17.00;100.00;101051.06;5010998;28;20064;-79
2022/05/27 00:38:09;;;;;;;3.97;2.00;;;18.00;95.50;;;16.94;100.00;101052.19;5011693;28;20065;-80
2022/05/27 00:40:46;;;;;;;2.10;1.80;;;16.90;95.20;;;16.91;100.00;101060.25;5009418;28;20453;-80
2022/05/27 00:43:14;;;;;;;4.38;1.77;;;16.90;95.30;;;16.92;100.00;101053.16;5011245;28;20050;-80
2022/05/27 00:45:45;;;;;;;4.88;2.45;;;16.90;95.50;;;16.94;100.00;101048.63;5027371;28;20045;-79
2022/05/27 00:48:20;;;;;;;6.38;2.33;;;16.80;95.60;;;16.81;100.00;101051.78;5027308;28;20053;-79
2022/05/27 00:50:49;;;;;;;3.78;1.95;;;16.80;95.70;;;16.81;100.00;101050.94;5010112;28;20569;-80
2022/05/27 00:53:34;;;;;;;5.67;1.80;;;16.70;96.40;;;16.79;100.00;101048.31;5027620;28;20049;-81
2022/05/27 00:56:04;;;;;;;5.38;2.05;;;16.80;95.60;;;16.72;100.00;101044.19;5028175;28;20045;-80
2022/05/27 00:58:40;;;;;;;3.40;1.75;;;16.60;95.90;;;16.72;100.00;101049.50;5027863;28;20097;-80
2022/05/27 01:01:07;;;;;;;3.30;1.75;;;19.70;96.80;;;16.64;100.00;101046.25;4993904;28;20049;-80
2022/05/27 01:03:35;;;;;;;6.35;2.10;;;16.50;96.20;;;16.56;100.00;101044.78;5001520;28;21073;-80
2022/05/27 01:06:03;;;;;;;4.22;2.03;;;16.40;99.10;;;16.50;100.00;101047.66;5009949;28;20045;-80
2022/05/27 01:08:30;;;;;;;4.20;2.35;;;;;;;16.52;100.00;101037.81;5025788;28;20064;-80
2022/05/27 01:11:12;;;;;;;3.28;2.00;;;16.50;96.40;;;16.53;100.00;101031.59;5026505;28;20240;-80
2022/05/27 01:14:12;;;;;;;2.33;1.77;;;16.50;96.50;;;16.54;100.00;101032.47;5042292;28;20168;-79
2022/05/27 01:17:18;;;;;;;3.33;1.98;;;16.30;96.60;;;16.46;100.00;101035.41;5028226;28;20052;-80
2022/05/27 01:20:18;;;;;;;3.03;1.85;;;16.40;99.60;;;16.42;100.00;101031.16;5025338;28;20042;-80
2022/05/27 01:23:22;;;;;;;1.42;1.33;;;16.30;99.20;;;16.35;100.00;101033.16;5026053;28;20041;-79
2022/05/27 01:26:34;;;;;;;3.80;1.80;;;16.30;99.90;;;16.29;100.00;101023.66;5010686;28;20049;-79
2022/05/27 01:30:02;;;;;;;3.20;2.00;;;16.20;97.20;;;16.32;100.00;101027.97;5020624;28;20042;-79
2022/05/27 01:32:58;;;;;;;2.83;2.30;;;16.30;97.10;;;16.34;100.00;101026.13;5023634;28;20053;-80
2022/05/27 01:35:37;;;;;;;3.78;2.15;;;16.20;97.10;;;16.29;100.00;101030.72;5024049;28;20057;-80
2022/05/27 01:38:41;;;;;;;5.57;2.10;;;16.50;99.90;;;16.27;100.00;101024.63;5024450;28;20049;-80
2022/05/27 01:41:24;;;;;;;4.00;2.20;;;16.20;97.40;;;16.26;100.00;101022.88;5022668;28;20049;-80
2022/05/27 01:44:02;;;;;;;4.15;1.92;;;16.10;97.60;;;16.10;100.00;101034.06;5022928;28;20045;-79
2022/05/27 01:46:37;;;;;;;3.85;2.40;;;;;;;16.11;100.00;101034.94;5022550;28;20054;-79
2022/05/27 01:49:10;;;;;;;3.58;2.13;;;16.10;97.70;;;16.15;100.00;101029.44;5022186;28;20164;-81
2022/05/27 01:51:56;;;;;;;3.28;2.50;;;16.00;97.80;;;16.08;100.00;101022.66;5023299;28;20052;-80
2022/05/27 01:55:04;;;;;;;3.42;2.05;;;16.00;98.00;;;16.03;100.00;101029.91;5021405;28;20057;-80
2022/05/27 01:57:50;;;;;;;5.03;2.60;;;16.00;98.10;;;15.93;100.00;101024.09;5023850;28;20321;-79
2022/05/27 02:00:26;;;;;;;3.78;2.17;;;16.80;98.50;;;15.91;100.00;101023.25;5009573;28;20494;-80
2022/05/27 02:03:23;;;;;;;2.95;2.00;;;15.90;98.20;;;15.92;100.00;101027.66;5009970;28;20049;-80
2022/05/27 02:06:02;;;;;;;4.38;2.33;;;16.30;99.90;;;15.92;100.00;101030.31;5024037;28;20069;-79
2022/05/27 02:08:47;;;;;;;3.25;1.95;;;15.90;98.50;;;15.89;100.00;101025.09;5047994;28;20552;-80
2022/05/27 02:11:19;;;;;;;3.10;2.30;;;15.90;98.60;;;15.85;100.00;101015.50;5031182;28;20073;-79
2022/05/27 02:14:22;;;;;;;3.55;2.13;;;16.20;98.80;;;15.79;100.00;101021.88;5029778;28;20069;-80
2022/05/27 02:16:57;;;;;;;5.13;2.17;;;15.80;98.70;;;15.79;100.00;101011.25;5013067;28;20053;-81
2022/05/27 02:19:50;;;;;;;4.78;2.42;;;15.80;98.80;;;15.79;100.00;101010.41;5013716;28;20285;-80
2022/05/27 02:22:32;;;;;;;4.45;2.78;;;15.70;98.80;;;15.73;100.00;101000.88;5013559;28;20086;-81
2022/05/27 02:25:08;;;;;;;3.72;2.55;;;15.70;98.90;;;15.64;100.00;101007.38;4997263;28;20045;-80
2022/05/27 02:27:48;;;;;;;4.28;2.25;;;15.60;98.90;;;15.65;100.00;101009.09;5029722;28;20049;-80
2022/05/27 02:30:18;;;;;;;5.47;2.58;;;15.50;99.60;;;15.60;100.00;100998.66;5029239;28;20060;-81
2022/05/27 02:35:46;;;;;;;3.08;2.22;;;15.50;99.20;;;15.55;100.00;100997.06;5030267;28;20038;-80
2022/05/27 02:38:13;;;;;;;3.17;2.15;;;;;;;15.54;100.00;101001.53;5013894;28;20045;-80
2022/05/27 02:41:07;;;;;;;4.95;2.60;;;15.50;99.20;;;15.56;100.00;100994.38;5012093;28;20072;-80
2022/05/27 02:43:50;;;;;;;3.30;2.53;;;;;;;15.51;100.00;100998.13;5029380;28;20049;-80
2022/05/27 02:47:02;;;;;;;5.75;2.58;;;15.50;99.40;;;15.54;100.00;100998.00;5012567;28;20046;-80
2022/05/27 02:49:47;;;;;;;4.20;2.80;;;15.50;99.40;;;15.47;100.00;100997.34;5027501;28;20514;-80
2022/05/27 02:52:14;;;;;;;4.47;2.42;;;;;;;15.39;100.00;101007.38;5027955;28;20049;-80
2022/05/27 02:54:55;;;;;;;6.40;2.67;;;13.80;99.20;;;15.39;100.00;101008.22;5011413;28;20050;-81
2022/05/27 02:57:48;;;;;;;4.50;2.58;;;15.40;99.70;;;15.27;100.00;101008.63;5027863;28;20037;-80
2022/05/27 03:00:19;;;;;;;5.07;2.92;;;;;;;15.27;100.00;100998.91;5010986;28;20042;-80
2022/05/27 03:02:47;;;;;;;5.50;2.50;;;15.40;99.70;;;15.25;100.00;101008.69;5027836;28;20513;-79
2022/05/27 03:05:19;;;;;;;3.40;2.70;;;18.70;99.90;;;15.34;100.00;101006.63;5028067;28;20053;-81
2022/05/27 03:08:02;;;;;;;4.82;2.47;;;15.30;99.90;;;15.36;100.00;101003.03;5028241;28;20059;-79
2022/05/27 03:11:04;;;;;;;4.00;2.70;;;15.40;99.90;;;15.36;100.00;101007.44;5026457;28;20080;-80
2022/05/27 03:13:49;;;;;;;3.15;2.30;;;15.30;99.90;;;15.32;100.00;100998.75;5027418;28;20045;-79
2022/05/27 03:17:01;;;;;;;5.88;3.10;;;15.20;99.90;;;15.35;100.00;101008.38;5028235;28;20072;-79
2022/05/27 03:20:13;;;;;;;4.53;3.28;;;14.90;99.90;;;15.36;100.00;101010.09;5026848;28;20144;-80
2022/05/27 03:23:34;;;;;;;3.67;2.58;;;15.30;99.90;;;15.37;100.00;101006.53;5011729;28;20064;-79
2022/05/27 03:26:30;;;;;;;5.15;2.55;;;15.50;99.90;;;15.32;100.00;101007.56;4992448;28;20065;-79
2022/05/27 03:28:57;;;;;;;5.82;3.30;;;;;;;15.29;100.00;101017.38;5041510;28;20069;-79
2022/05/27 03:31:54;;;;;;;4.68;2.88;;;15.30;99.90;;;15.32;100.00;101004.06;5030248;28;20051;-81
2022/05/27 03:34:56;;;;;;;5.05;3.03;;;15.30;99.90;;;15.29;100.00;101012.09;5029204;28;20072;-80
2022/05/27 03:37:44;;;;;;;5.72;3.03;;;15.30;99.90;;;15.34;100.00;101014.59;5029158;28;20034;-81
2022/05/27 03:40:39;;;;;;;4.97;3.00;;;15.50;99.90;;;15.31;100.00;101020.88;5029127;28;20050;-80
2022/05/27 03:43:09;;;;;;;4.50;3.22;;;15.30;99.90;;;15.25;100.00;101021.06;5031726;28;20041;-78
2022/05/27 03:45:56;;;;;;;3.47;2.73;;;15.80;99.90;;;15.34;100.00;101041.09;5030877;28;20049;-80
2022/05/27 03:48:27;;;;;;;5.43;2.90;;;15.30;99.90;;;15.32;100.00;101033.22;5031748;28;20284;-81
2022/05/27 03:51:18;;;;;;;3.72;2.88;;;15.20;99.90;;;15.32;100.00;101039.38;5027420;28;20052;-81
2022/05/27 03:54:03;;;;;;;4.68;2.83;;;13.10;99.90;;;15.22;100.00;101045.03;5031188;28;20059;-80
2022/05/27 03:56:41;;;;;;;6.35;3.30;;;15.30;99.90;;;15.34;100.00;101034.03;5028961;28;20065;-80
2022/05/27 03:59:12;;;;;;;4.03;2.72;;;14.70;99.90;;;15.40;100.00;101039.09;5028189;28;20042;-80
2022/05/27 04:01:44;;;;;;;4.40;3.15;;;15.30;99.90;;;15.43;100.00;101043.44;5017469;28;20060;-79
2022/05/27 04:04:15;;;;;;;6.28;3.03;;;15.30;99.90;;;15.43;100.00;101046.94;5029218;28;20056;-80
2022/05/27 04:06:43;;;;;;;3.50;2.97;;;17.10;99.90;;;15.48;100.00;101041.50;5030144;28;20128;-80
2022/05/27 04:09:10;;;;;;;4.53;3.22;;;;;;;15.54;100.00;101043.97;5012179;28;20045;-79
2022/05/27 04:11:38;;;;;;;5.55;2.92;;;15.20;99.90;;;15.53;100.00;101044.00;5013252;28;20053;-79
2022/05/27 04:14:06;;;;;;;5.40;2.85;;;17.60;99.90;;;15.54;100.00;101040.44;4997511;28;20052;-79
2022/05/27 04:16:33;;;;;;;5.15;3.13;;;15.50;99.90;;;15.55;100.00;101044.81;4996385;28;20049;-81
2022/05/27 04:19:00;;;;;;;3.85;3.10;;;15.40;99.90;;;15.55;100.00;101044.81;5028227;28;20060;-79
2022/05/27 04:21:28;;;;;;;5.80;3.33;;;15.90;99.90;;;15.56;100.00;101052.72;5028593;28;20132;-79
2022/05/27 04:23:55;;;;;;;4.70;2.92;;;15.50;99.90;;;15.56;100.00;101059.81;5012849;28;20049;-80
2022/05/27 04:26:22;;;;;;;8.05;4.03;;;15.90;99.90;;;15.56;100.00;101049.19;4996877;28;20512;-79
2022/05/27 04:28:50;;;;;;;6.13;3.15;;;15.60;99.90;;;15.63;100.00;101058.69;4995420;28;20148;-80
2022/05/27 04:31:17;;;;;;;6.57;3.63;;;16.00;99.90;;;15.65;100.00;101064.81;5028552;28;20058;-80
2022/05/27 04:33:44;;;;;;;6.22;3.67;;;16.70;99.90;;;15.59;100.00;101057.03;5045155;28;20494;-78
2022/05/27 04:36:14;;;;;;;6.15;3.50;;;16.80;99.90;;;15.67;100.00;101064.75;5029090;28;20488;-79
2022/05/27 04:38:42;;;;;;;5.55;3.78;;;16.30;99.90;;;15.65;100.00;101063.94;5028962;28;20144;-79
2022/05/27 04:41:09;;;;;;;6.38;4.38;;;17.60;99.90;;;15.64;100.00;101065.72;5030114;28;20647;-80
2022/05/27 04:43:36;;;;;;;5.40;4.60;;;15.70;99.90;;;15.72;100.00;101068.13;5013447;28;20046;-80
2022/05/27 04:46:04;;;;;;;5.22;4.72;;;16.10;99.90;;;15.74;100.00;101061.81;5014157;28;20060;-80
2022/05/27 04:48:31;;;;;;;7.70;6.50;;;17.60;99.90;;;15.81;100.00;101081.06;5014471;28;20053;-79
2022/05/27 04:50:58;;;;;;;8.68;6.57;;;18.00;99.90;;;15.74;100.00;101072.44;5030419;28;20080;-80
2022/05/27 04:53:26;;;;;;;7.72;6.15;;;17.50;99.90;;;15.82;100.00;101069.50;5030750;28;20049;-80
2022/05/27 04:55:53;;;;;;;8.10;7.10;;;17.60;99.90;;;15.83;100.00;101068.59;5013135;28;20049;-78
2022/05/27 04:58:20;;;;;;;10.52;6.72;;;15.80;99.90;;;15.93;100.00;101058.59;4996135;28;20041;-80
2022/05/27 05:00:48;;;;;;;9.63;7.28;;;16.50;99.90;;;15.91;100.00;101071.00;5010171;28;20053;-80
2022/05/27 05:03:16;;;;;;;9.85;7.78;;;17.00;99.90;;;15.87;100.00;101066.72;5028761;28;20091;-78
2022/05/27 05:05:44;;;;;;;11.50;8.75;;;15.90;99.80;;;15.92;100.00;101069.25;5015332;28;20034;-77
2022/05/27 05:08:32;;;;;;;12.63;8.50;;;15.90;99.90;;;15.90;100.00;101077.25;5034716;28;20041;-77
2022/05/27 05:11:05;;;;;;;8.95;7.50;;;15.90;99.80;;;15.99;100.00;101057.47;5028430;28;20076;-77
2022/05/27 05:13:33;;;;;;;10.82;8.73;;;15.90;99.80;;;16.09;100.00;101072.16;5015087;28;20064;-79
2022/05/27 05:16:02;;;;;;;9.80;8.35;;;17.50;99.90;;;16.05;100.00;101067.88;5026995;28;20049;-78
2022/05/27 05:18:29;;;;;;;10.52;8.82;;;16.10;99.60;;;16.04;100.00;101067.94;5027842;28;20129;-78
2022/05/27 05:20:57;;;;;;;11.38;9.10;;;16.70;99.80;;;16.12;100.00;101076.50;5007316;28;20057;-77
2022/05/27 05:23:23;;;;;;;10.93;8.15;;;18.20;99.90;;;16.14;100.00;101079.97;5028999;28;20395;-75
2022/05/27 05:25:50;;;;;;;9.73;8.30;;;16.10;99.60;;;16.12;100.00;101087.97;5031228;28;20045;-78
2022/05/27 05:28:17;;;;;;;9.38;8.48;;;16.80;99.80;;;16.14;100.00;101074.66;5035430;28;20421;-78
2022/05/27 05:30:44;;;;;;;10.02;8.98;;;17.60;99.90;;;16.21;100.00;101077.94;5050825;28;20041;-78
2022/05/27 05:33:12;;;;;;;11.05;8.95;;;16.10;99.50;;;16.11;100.00;101080.94;5039666;28;20052;-79
2022/05/27 05:35:39;;;;;;;11.98;9.07;;;16.20;99.40;;;16.25;100.00;101076.91;5027032;28;20485;-77
2022/05/27 05:38:06;;;;;;;10.35;9.20;;;16.20;99.40;;;16.23;100.00;101073.44;5013747;28;20132;-77
2022/05/27 05:40:34;;;;;;;10.68;9.43;;;16.20;99.40;;;16.38;100.00;101072.00;5027800;28;20053;-77
2022/05/27 05:43:01;;;;;;;13.18;10.60;;;14.40;98.80;;;16.26;100.00;101068.91;5009746;28;20075;-77
2022/05/27 05:45:29;;;;;;;11.77;8.82;;;16.20;99.20;;;16.38;100.00;101077.31;5012485;28;20100;-77
2022/05/27 05:47:56;;;;;;;14.27;9.57;;;19.50;99.90;;;16.34;100.00;101073.94;5009930;28;20052;-77
2022/05/27 05:50:24;;;;;;;10.98;9.88;;;17.00;99.40;;;16.45;100.00;101068.22;5023862;28;20046;-77
2022/05/27 05:52:51;;;;;;;11.18;9.10;;;16.40;99.10;;;16.49;100.00;101075.13;5025125;28;20070;-77
2022/05/27 05:55:19;;;;;;;12.90;11.10;;;19.10;99.80;;;16.42;100.00;101079.81;5009502;28;20051;-77
2022/05/27 05:57:49;;;;;;;12.57;10.07;;;19.20;99.80;;;16.47;100.00;101076.09;5026226;28;20517;-77
2022/05/27 06:00:21;;;;;;;11.25;9.40;;;16.80;99.10;;;16.51;100.00;101081.25;5029101;28;20081;-77
2022/05/27 06:02:48;;;;;;;12.40;10.02;;;16.50;98.80;;;16.47;100.00;101087.59;5030216;28;20107;-77
2022/05/27 06:05:16;;;;;;;9.40;8.50;;;18.10;99.20;;;16.59;100.00;101079.19;5045761;28;20051;-77
2022/05/27 06:07:44;;;;;;;11.57;8.90;;;16.50;98.80;;;16.64;100.00;101081.66;5047607;28;20053;-77
2022/05/27 06:10:13;;;;;;;11.10;9.10;;;16.50;98.80;;;16.54;100.00;101075.81;5035578;28;20063;-78
2022/05/27 06:12:41;;;;;;;13.50;8.27;;;16.50;98.50;;;16.59;100.00;101073.88;5036860;28;20037;-78
2022/05/27 06:15:21;;;;;;;12.23;9.15;;;16.50;98.60;;;16.56;100.00;101081.97;5052333;28;20055;-76
2022/05/27 06:17:48;;;;;;;11.50;8.77;;;19.20;99.20;;;16.57;100.00;101073.06;5019930;28;20060;-77
2022/05/27 06:20:16;;;;;;;8.98;8.07;;;16.50;98.50;;;16.54;100.00;101075.81;5036440;28;20061;-77
2022/05/27 06:22:43;;;;;;;10.20;8.05;;;17.90;98.80;;;16.48;100.00;101076.06;5035650;28;20081;-77
2022/05/27 06:25:12;;;;;;;10.30;8.20;;;16.50;98.50;;;16.55;100.00;101074.91;5029289;28;20053;-76
2022/05/27 06:27:39;;;;;;;9.48;8.60;;;16.50;98.50;;;16.68;100.00;101072.66;5028122;28;20041;-76
2022/05/27 06:35:41;;;;;;;13.27;8.43;;;16.70;98.40;;;16.96;100.00;101058.28;5029276;28;20049;-77
2022/05/27 06:38:09;;;;;;;9.17;8.27;;;16.90;98.40;;;17.12;100.00;101060.38;5028107;28;20513;-77
2022/05/27 06:40:36;;;;;;;9.48;7.72;;;18.10;98.60;;;17.08;100.00;101058.72;5026656;28;20565;-77
2022/05/27 06:43:03;;;;;;;8.38;7.10;;;16.90;98.10;;;17.23;100.00;101068.75;5012343;28;20414;-76
2022/05/27 06:45:31;;;;;;;7.40;6.40;;;17.10;97.90;;;17.24;100.00;101059.84;5028008;28;20103;-77
2022/05/27 06:47:58;;;;;;;8.10;6.15;;;17.20;97.90;;;17.29;100.00;101060.53;5011754;28;20053;-76
2022/05/27 06:50:25;;;;;;;8.02;6.10;;;17.30;97.90;;;17.38;100.00;101053.97;5043516;28;20052;-76
2022/05/27 06:52:55;;;;;;;8.02;6.10;;;17.30;97.60;;;17.42;100.00;101060.03;5010131;28;20038;-76
2022/05/27 06:55:22;;;;;;;7.80;5.75;;;17.40;97.40;;;17.53;100.00;101067.56;5007529;28;20053;-76
2022/05/27 06:57:50;;;;;;;6.55;4.88;;;17.40;97.40;;;17.46;100.00;101066.94;5007196;28;20069;-76
2022/05/27 07:00:17;;;;;;;5.38;4.88;;;17.50;97.20;;;17.64;100.00;101057.34;5006911;28;20049;-76
2022/05/27 07:02:44;;;;;;;7.35;5.25;;;17.50;97.20;;;17.58;100.00;101070.88;5026735;28;20557;-78
2022/05/27 07:05:11;;;;;;;5.63;5.05;;;17.60;97.20;;;17.79;100.00;101071.75;5017921;28;20041;-80
2022/05/27 07:07:39;;;;;;;6.50;5.05;;;17.70;97.40;;;17.79;100.00;101063.78;5034643;28;20048;-81
2022/05/27 07:10:07;;;;;;;5.75;4.60;;;17.70;97.20;;;17.76;100.00;101079.00;5035964;28;20097;-81
2022/05/27 07:12:36;;;;;;;5.43;4.35;;;17.70;97.00;;;17.83;100.00;101054.72;5035574;28;20042;-81
2022/05/27 07:15:04;;;;;;;5.68;4.72;;;19.80;97.60;;;17.86;100.00;101062.56;5036183;28;20045;-80
2022/05/27 07:17:31;;;;;;;8.30;5.40;;;17.80;97.00;;;17.90;100.00;101067.78;5019108;28;20072;-81
2022/05/27 07:19:58;;;;;;;9.43;5.38;;;17.80;96.80;;;17.83;100.00;101069.84;5037412;28;20037;-79
2022/05/27 07:22:26;;;;;;;6.28;5.38;;;18.40;97.00;;;17.96;100.00;101070.16;5024332;28;20072;-81
2022/05/27 07:24:53;;;;;;;7.80;4.78;;;17.90;97.00;;;17.83;100.00;101068.03;5021872;28;20064;-79
2022/05/27 07:27:21;;;;;;;6.85;4.93;;;19.80;97.40;;;17.88;100.00;101080.28;5016727;28;20059;-78
2022/05/27 07:29:48;;;;;;;9.65;4.95;;;17.90;96.60;;;17.85;100.00;101074.13;5013124;28;20085;-79
2022/05/27 07:32:15;;;;;;;6.03;4.60;;;17.80;96.80;;;17.90;100.00;101073.09;5012965;28;20194;-78
2022/05/27 07:34:46;;;;;;;5.85;4.88;;;17.80;96.90;;;17.99;100.00;101070.00;5029268;28;20049;-79
2022/05/27 07:37:13;;;;;;;7.15;4.10;;;18.10;96.90;;;17.85;100.00;101074.13;5030269;28;20076;-79
2022/05/27 07:39:41;;;;;;;5.68;4.13;;;17.90;96.80;;;17.94;100.00;101074.69;5027514;28;20072;-79
2022/05/27 07:42:08;;;;;;;4.55;4.15;;;17.90;96.70;;;17.93;100.00;101072.97;5028626;28;20447;-80
2022/05/27 07:44:35;;;;;;;5.35;4.10;;;17.90;96.70;;;17.79;100.00;101069.09;5029461;28;20045;-79
2022/05/27 07:47:02;;;;;;;5.07;4.15;;;17.80;96.80;;;17.95;100.00;101077.28;5029347;28;20065;-79
2022/05/27 07:49:29;;;;;;;5.97;3.85;;;17.90;96.80;;;17.92;100.00;101077.41;5009096;28;20136;-79
2022/05/27 07:52:01;;;;;;;4.93;3.85;;;18.60;96.90;;;17.86;100.00;101073.22;4992218;28;20056;-78
2022/05/27 07:54:29;;;;;;;5.97;3.50;;;17.90;96.60;;;17.86;100.00;101075.88;5008944;28;20396;-79
2022/05/27 07:56:57;;;;;;;5.15;3.38;;;18.80;96.90;;;17.86;100.00;101061.72;5008896;28;20077;-79
2022/05/27 07:59:24;;;;;;;4.82;3.63;;;17.80;96.60;;;17.78;100.00;101074.47;5007002;28;20053;-81
2022/05/27 08:01:51;;;;;;;5.35;3.20;;;17.80;96.70;;;17.86;100.00;101061.72;4998488;28;20122;-79
2022/05/27 08:04:19;;;;;;;4.85;3.60;;;17.80;96.70;;;17.91;100.00;101066.84;5009085;28;20073;-80
2022/05/27 08:06:46;;;;;;;5.47;2.95;;;17.80;96.90;;;17.74;100.00;101063.13;5008930;28;20050;-80
2022/05/27 08:09:15;;;;;;;5.03;3.30;;;17.80;96.80;;;17.85;100.00;101060.00;5024821;28;20045;-79
2022/05/27 08:11:42;;;;;;;3.22;2.63;;;17.80;96.90;;;17.71;100.00;101064.09;5024066;28;20720;-77
2022/05/27 08:14:09;;;;;;;8.18;3.47;;;19.70;97.40;;;17.68;100.00;101082.00;5025684;28;20068;-77
2022/05/27 08:16:41;;;;;;;3.97;3.00;;;17.70;96.80;;;17.42;100.00;101086.63;4994370;28;20067;-77
2022/05/27 08:19:08;;;;;;;4.97;3.15;;;17.60;96.80;;;17.49;100.00;101085.44;5018849;28;20052;-77
2022/05/27 08:21:37;;;;;;;3.30;2.88;;;17.50;96.90;;;17.54;100.00;101077.25;5015464;28;20041;-78
2022/05/27 08:24:07;;;;;;;5.68;3.00;;;17.50;96.90;;;17.42;100.00;101086.63;5016656;28;20067;-78
2022/05/27 08:26:37;;;;;;;3.88;2.78;;;17.50;96.80;;;17.41;100.00;101084.91;5008017;28;20046;-79
2022/05/27 08:29:06;;;;;;;4.13;3.05;;;17.50;96.80;;;17.47;100.00;101081.09;5019369;28;20565;-79
2022/05/27 08:31:34;;;;;;;3.85;3.15;;;17.40;96.80;;;17.46;100.00;101085.56;5029454;28;20470;-78
2022/05/27 08:39:39;;;;;;;5.43;3.05;;;17.40;96.90;;;17.44;100.00;101072.31;5041956;28;20041;-79
2022/05/27 08:42:09;;;;;;;7.55;3.10;;;17.40;96.90;;;17.46;100.00;101084.69;5046283;28;20053;-79
2022/05/27 08:45:02;;;;;;;;;;;17.40;96.90;;;17.50;100.00;101071.19;5027038;28;20121;-78
2022/05/27 08:47:42;;;;;;;5.18;2.80;;;17.40;96.80;;;17.46;100.00;101076.72;5028210;28;19925;-78
2022/05/27 08:50:29;;;;;;;5.05;2.80;;;17.40;96.70;;;17.55;100.00;101073.69;5040731;28;20033;-79
2022/05/27 08:53:36;;;;;;;5.05;2.78;;;17.40;96.90;;;17.57;100.00;101086.00;5032496;28;20530;-78
2022/05/27 08:59:28;;;;;;;3.15;2.65;;;17.50;96.70;;;17.89;100.00;101080.22;5041352;28;20041;-78
2022/05/27 09:02:08;;;;;;;7.13;3.72;;;17.60;96.80;;;17.99;100.00;101080.66;5040696;28;20033;-77
2022/05/27 09:04:42;;;;;;;3.55;2.80;;;16.50;96.30;;;18.27;100.00;101067.03;5027932;28;20045;-77
2022/05/27 09:08:03;;;;;;;4.97;3.10;;;17.90;96.60;;;18.54;100.00;101064.03;5035783;28;20481;-78
2022/05/27 09:10:48;;;;;;;3.58;2.75;;;18.20;96.40;;;18.78;100.00;101060.28;4931047;29;20075;-77
2022/05/27 09:13:20;;;;;;;4.40;2.88;;;18.40;96.30;;;18.97;100.00;101063.81;5019727;28;20053;-78
2022/05/27 09:16:16;;;;;;;7.13;2.80;;;18.60;96.00;;;19.10;100.00;101055.22;5027983;28;20099;-79
2022/05/27 09:19:15;;;;;;;5.00;2.63;;;18.90;95.60;;;19.15;100.00;101049.66;5027335;28;20131;-79
2022/05/27 09:22:17;;;;;;;5.70;2.47;;;19.00;95.30;;;19.13;100.00;101047.09;5041111;28;20095;-77
2022/05/27 09:25:12;;;;;;;4.07;2.47;;;19.10;95.20;;;19.23;100.00;101048.34;5008383;28;20048;-77
2022/05/27 09:29:01;;;;;;;3.17;2.35;;;19.00;95.10;;;19.45;100.00;101049.06;5026886;28;20091;-77
2022/05/27 09:31:45;;;;;;;3.25;2.08;;;19.20;95.30;;;19.29;100.00;101052.50;5008680;28;20054;-78
2022/05/27 09:34:13;;;;;;;5.00;2.78;;;19.20;94.80;;;19.16;100.00;101049.59;5032558;28;20056;-77
2022/05/27 09:36:46;;;;;;;2.53;2.33;;;19.20;94.80;;;19.19;100.00;101051.22;4991533;28;20042;-77
2022/05/27 09:39:18;;;;;;;3.97;2.20;;;19.10;94.90;;;19.17;100.00;101046.00;4989521;28;20049;-77
2022/05/27 09:42:35;;;;;;;2.40;2.20;;;19.10;95.10;;;19.33;100.00;101051.41;5007658;28;20052;-77
2022/05/27 09:45:03;;;;;;;2.65;1.92;;;19.10;95.20;;;19.46;100.00;101043.66;5032217;28;20414;-77
2022/05/27 09:47:34;;;;;;;4.38;2.00;;;19.30;95.00;;;19.42;100.00;101052.75;5025476;28;20050;-77
2022/05/27 09:50:28;;;;;;;3.95;2.00;;;19.30;94.90;;;19.53;100.00;101041.56;5027120;28;20087;-77
2022/05/27 09:52:58;;;;;;;4.63;1.83;;;19.40;94.80;;;19.41;100.00;101037.69;5034989;28;20037;-78
2022/05/27 09:56:02;;;;;;;4.57;2.05;;;19.40;94.60;;;19.31;100.00;101037.28;5031477;28;20120;-79
2022/05/27 09:58:37;;;;;;;4.30;2.50;;;19.30;94.70;;;19.23;100.00;101036.81;5024712;28;20147;-76
2022/05/27 10:01:19;;;;;;;4.28;2.42;;;19.30;94.80;;;19.58;100.00;101034.16;5029686;28;20042;-81
2022/05/27 10:03:58;;;;;;;2.10;1.80;;;19.40;94.70;;;19.71;100.00;101045.06;5046098;28;20045;-79
2022/05/27 10:06:30;;;;;;;3.95;1.92;;;19.50;94.50;;;19.62;100.00;101045.56;5034263;28;20065;-80
2022/05/27 10:09:02;;;;;;;2.58;2.13;;;19.50;94.40;;;19.62;100.00;101042.88;5024409;28;20075;-80
2022/05/27 10:11:33;;;;;;;2.13;1.92;;;19.50;94.40;;;19.51;100.00;101064.75;5018980;28;20548;-80
2022/05/27 10:14:33;;;;;;;2.47;1.88;;;19.50;94.30;;;19.50;100.00;101050.56;5009904;28;20466;-80
2022/05/27 10:17:13;;;;;;;2.40;2.15;;;19.40;94.40;;;19.39;100.00;101047.56;4988592;28;20058;-77
2022/05/27 10:19:47;;;;;;;2.55;1.50;;;19.40;94.00;;;19.21;100.00;101049.38;5016533;28;20113;-77
2022/05/27 10:22:20;;;;;;;2.80;1.98;;;19.30;94.00;;;18.93;100.00;101043.53;5010158;28;20168;-77
2022/05/27 10:25:01;;;;;;;3.20;1.80;;;19.20;94.10;;;19.13;100.00;101039.09;5029202;28;20545;-77
2022/05/27 10:27:53;;;;;;;3.28;1.83;;;19.00;94.40;;;19.34;100.00;101047.81;5029320;28;20049;-77
2022/05/27 10:30:50;;;;;;;2.58;1.60;;;19.10;94.40;;;19.33;100.00;101032.72;4994306;28;20055;-77
2022/05/27 10:33:43;;;;;;;2.40;1.83;;;19.20;94.30;;;19.53;100.00;101037.06;5025318;28;20570;-77
2022/05/27 10:36:50;;;;;;;2.08;1.52;;;19.30;94.30;;;19.17;100.00;101046.00;5014236;28;20073;-78
2022/05/27 10:39:30;;;;;;;3.65;1.50;;;19.20;94.10;;;19.08;100.00;101041.09;5032599;28;20045;-80
2022/05/27 10:42:28;;;;;;;2.55;1.60;;;19.00;94.10;;;19.01;100.00;101037.88;5017045;28;20049;-77
2022/05/27 10:45:44;;;;;;;3.60;1.45;;;19.00;94.20;;;19.15;100.00;101026.53;5018427;28;20058;-78
2022/05/27 10:48:56;;;;;;;3.08;1.60;;;19.00;94.20;;;19.23;100.00;101026.16;5024295;28;20045;-79
2022/05/27 10:52:09;;;;;;;2.10;1.90;;;19.00;94.30;;;19.24;100.00;101038.56;5033621;28;20050;-78
2022/05/27 11:02:40;;;;;;;4.10;1.70;;;19.10;94.10;;;19.25;100.00;101042.94;4932831;29;20056;-79
2022/05/27 11:05:57;;;;;;;2.55;1.80;;;17.70;93.70;;;19.17;100.00;101038.00;4923925;29;20052;-80
2022/05/27 11:09:05;;;;;;;3.05;2.13;;;19.10;94.00;;;19.06;100.00;101030.53;4917053;29;20095;-79
2022/05/27 11:11:44;;;;;;;1.77;1.30;;;19.00;94.10;;;18.91;100.00;101026.75;4876428;29;20064;-80
2022/05/27 11:17:42;;;;;;;2.15;1.90;;;18.90;94.40;;;19.07;100.00;101015.38;4890464;29;20053;-80